sensor_id;sensor_type;location;lat;lon;timestamp;P1;durP1;ratioP1;P2;durP2;ratioP2
53253;SDS011;39148;53.332;6.922;2023-02-01T11:19:23;7.15;;;1.10;;
53253;SDS011;39148;53.332;6.922;2023-02-01T11:21:53;7.10;;;0.95;;
53253;SDS011;39148;53.332;6.922;2023-02-01T11:24:34;7.93;;;1.17;;
53253;SDS011;39148;53.332;6.922;2023-02-01T11:27:04;6.63;;;1.10;;
53253;SDS011;39148;53.332;6.922;2023-02-01T11:29:39;6.07;;;0.82;;
53253;SDS011;39148;53.332;6.922;2023-02-01T11:32:06;6.88;;;1.08;;
53253;SDS011;39148;53.332;6.922;2023-02-01T11:34:37;6.35;;;0.90;;
53253;SDS011;39148;53.332;6.922;2023-02-01T11:37:04;6.63;;;1.00;;
53253;SDS011;39148;53.332;6.922;2023-02-01T11:39:31;5.47;;;0.95;;
53253;SDS011;39148;53.332;6.922;2023-02-01T11:49:45;6.32;;;1.00;;
53253;SDS011;39148;53.332;6.922;2023-02-01T11:52:21;5.68;;;0.80;;
53253;SDS011;39148;53.332;6.922;2023-02-01T12:13:29;9.55;;;1.50;;
53253;SDS011;39148;53.332;6.922;2023-02-01T12:16:07;4.10;;;0.80;;
53253;SDS011;39148;53.332;6.922;2023-02-01T12:33:56;5.57;;;1.05;;
53253;SDS011;39148;53.332;6.922;2023-02-01T12:36:57;4.13;;;0.80;;
53253;SDS011;39148;53.332;6.922;2023-02-01T12:47:49;5.82;;;1.10;;
53253;SDS011;39148;53.332;6.922;2023-02-01T12:50:18;9.70;;;1.20;;
53253;SDS011;39148;53.332;6.922;2023-02-01T12:53:06;9.90;;;1.80;;
53253;SDS011;39148;53.332;6.922;2023-02-01T12:55:38;11.50;;;1.65;;
53253;SDS011;39148;53.332;6.922;2023-02-01T12:58:12;10.05;;;1.63;;
53253;SDS011;39148;53.332;6.922;2023-02-01T13:00:40;11.93;;;2.22;;
53253;SDS011;39148;53.332;6.922;2023-02-01T13:05:56;13.93;;;1.98;;
53253;SDS011;39148;53.332;6.922;2023-02-01T13:11:36;14.90;;;2.22;;
53253;SDS011;39148;53.332;6.922;2023-02-01T13:13:58;17.63;;;3.15;;
53253;SDS011;39148;53.332;6.922;2023-02-01T13:16:39;16.80;;;2.87;;
53253;SDS011;39148;53.332;6.922;2023-02-01T13:19:11;14.60;;;2.58;;
53253;SDS011;39148;53.332;6.922;2023-02-01T13:21:46;17.08;;;2.80;;
53253;SDS011;39148;53.332;6.922;2023-02-01T13:24:36;18.38;;;3.38;;
53253;SDS011;39148;53.332;6.922;2023-02-01T13:27:00;13.50;;;2.88;;
53253;SDS011;39148;53.332;6.922;2023-02-01T13:29:26;21.50;;;3.70;;
53253;SDS011;39148;53.332;6.922;2023-02-01T13:39:50;21.48;;;3.40;;
53253;SDS011;39148;53.332;6.922;2023-02-01T13:42:27;22.10;;;3.53;;
53253;SDS011;39148;53.332;6.922;2023-02-01T13:44:58;13.73;;;2.50;;
53253;SDS011;39148;53.332;6.922;2023-02-01T13:47:29;21.00;;;3.70;;
53253;SDS011;39148;53.332;6.922;2023-02-01T13:50:01;15.75;;;2.75;;
53253;SDS011;39148;53.332;6.922;2023-02-01T13:52:34;23.25;;;4.20;;
53253;SDS011;39148;53.332;6.922;2023-02-01T13:57:37;18.40;;;3.85;;
53253;SDS011;39148;53.332;6.922;2023-02-01T14:00:08;15.18;;;4.03;;
53253;SDS011;39148;53.332;6.922;2023-02-01T14:13:27;22.63;;;3.92;;
53253;SDS011;39148;53.332;6.922;2023-02-01T14:18:54;16.63;;;3.00;;
53253;SDS011;39148;53.332;6.922;2023-02-01T14:23:42;16.58;;;2.85;;
53253;SDS011;39148;53.332;6.922;2023-02-01T14:26:14;20.80;;;3.28;;
53253;SDS011;39148;53.332;6.922;2023-02-01T14:28:42;16.08;;;2.90;;
53253;SDS011;39148;53.332;6.922;2023-02-01T14:31:17;16.83;;;3.40;;
53253;SDS011;39148;53.332;6.922;2023-02-01T14:33:44;20.20;;;3.25;;
53253;SDS011;39148;53.332;6.922;2023-02-01T14:36:12;14.10;;;2.88;;
53253;SDS011;39148;53.332;6.922;2023-02-01T14:38:39;16.05;;;3.08;;
53253;SDS011;39148;53.332;6.922;2023-02-01T14:41:23;18.85;;;3.15;;
53253;SDS011;39148;53.332;6.922;2023-02-01T14:44:36;18.83;;;3.08;;
53253;SDS011;39148;53.332;6.922;2023-02-01T14:49:22;21.25;;;3.30;;
53253;SDS011;39148;53.332;6.922;2023-02-01T14:51:49;17.85;;;3.20;;
53253;SDS011;39148;53.332;6.922;2023-02-01T14:54:16;20.67;;;3.80;;
53253;SDS011;39148;53.332;6.922;2023-02-01T14:56:44;18.05;;;3.60;;
53253;SDS011;39148;53.332;6.922;2023-02-01T14:59:12;21.55;;;3.95;;
53253;SDS011;39148;53.332;6.922;2023-02-01T15:01:46;21.63;;;3.38;;
53253;SDS011;39148;53.332;6.922;2023-02-01T15:04:16;17.80;;;3.22;;
53253;SDS011;39148;53.332;6.922;2023-02-01T15:14:27;21.45;;;3.65;;
53253;SDS011;39148;53.332;6.922;2023-02-01T15:16:55;21.38;;;3.35;;
53253;SDS011;39148;53.332;6.922;2023-02-01T15:19:22;20.40;;;3.90;;
53253;SDS011;39148;53.332;6.922;2023-02-01T15:21:53;17.30;;;3.28;;
53253;SDS011;39148;53.332;6.922;2023-02-01T15:26:45;21.40;;;3.83;;
53253;SDS011;39148;53.332;6.922;2023-02-01T15:29:12;19.40;;;2.97;;
53253;SDS011;39148;53.332;6.922;2023-02-01T15:31:46;15.00;;;3.03;;
53253;SDS011;39148;53.332;6.922;2023-02-01T15:34:16;16.98;;;3.40;;
53253;SDS011;39148;53.332;6.922;2023-02-01T15:36:42;16.42;;;3.00;;
53253;SDS011;39148;53.332;6.922;2023-02-01T15:39:16;21.23;;;3.17;;
53253;SDS011;39148;53.332;6.922;2023-02-01T15:41:47;17.63;;;3.33;;
53253;SDS011;39148;53.332;6.922;2023-02-01T15:44:17;23.17;;;4.37;;
53253;SDS011;39148;53.332;6.922;2023-02-01T15:46:47;21.15;;;3.28;;
53253;SDS011;39148;53.332;6.922;2023-02-01T15:49:19;20.13;;;3.00;;
53253;SDS011;39148;53.332;6.922;2023-02-01T15:51:46;15.68;;;3.38;;
53253;SDS011;39148;53.332;6.922;2023-02-01T15:54:16;19.63;;;3.30;;
53253;SDS011;39148;53.332;6.922;2023-02-01T15:56:50;18.80;;;2.70;;
53253;SDS011;39148;53.332;6.922;2023-02-01T15:59:21;21.02;;;3.50;;
53253;SDS011;39148;53.332;6.922;2023-02-01T16:01:48;22.77;;;3.67;;
53253;SDS011;39148;53.332;6.922;2023-02-01T16:04:17;17.27;;;2.88;;
53253;SDS011;39148;53.332;6.922;2023-02-01T16:06:51;16.13;;;2.75;;
53253;SDS011;39148;53.332;6.922;2023-02-01T16:09:19;17.33;;;3.38;;
53253;SDS011;39148;53.332;6.922;2023-02-01T16:14:18;20.92;;;3.65;;
53253;SDS011;39148;53.332;6.922;2023-02-01T16:16:44;14.52;;;3.20;;
53253;SDS011;39148;53.332;6.922;2023-02-01T16:19:10;18.10;;;3.03;;
53253;SDS011;39148;53.332;6.922;2023-02-01T16:21:36;17.27;;;3.35;;
53253;SDS011;39148;53.332;6.922;2023-02-01T16:24:02;15.60;;;2.92;;
53253;SDS011;39148;53.332;6.922;2023-02-01T16:26:29;21.05;;;3.45;;
53253;SDS011;39148;53.332;6.922;2023-02-01T16:28:56;16.63;;;3.03;;
53253;SDS011;39148;53.332;6.922;2023-02-01T16:31:26;23.70;;;4.38;;
53253;SDS011;39148;53.332;6.922;2023-02-01T16:33:53;18.90;;;3.55;;
53253;SDS011;39148;53.332;6.922;2023-02-01T16:36:19;18.23;;;3.60;;
53253;SDS011;39148;53.332;6.922;2023-02-01T16:38:46;15.40;;;3.50;;
53253;SDS011;39148;53.332;6.922;2023-02-01T16:41:14;21.05;;;3.42;;
53253;SDS011;39148;53.332;6.922;2023-02-01T16:43:41;21.70;;;3.47;;
53253;SDS011;39148;53.332;6.922;2023-02-01T16:46:11;18.65;;;3.53;;
53253;SDS011;39148;53.332;6.922;2023-02-01T16:48:40;17.23;;;3.10;;
53253;SDS011;39148;53.332;6.922;2023-02-01T16:51:10;20.40;;;3.67;;
53253;SDS011;39148;53.332;6.922;2023-02-01T16:53:37;16.60;;;4.10;;
53253;SDS011;39148;53.332;6.922;2023-02-01T16:56:12;18.75;;;3.50;;
53253;SDS011;39148;53.332;6.922;2023-02-01T16:58:39;19.67;;;3.10;;
53253;SDS011;39148;53.332;6.922;2023-02-01T17:01:08;15.35;;;3.05;;
53253;SDS011;39148;53.332;6.922;2023-02-01T17:03:34;18.38;;;3.88;;
53253;SDS011;39148;53.332;6.922;2023-02-01T17:06:00;20.20;;;3.20;;
53253;SDS011;39148;53.332;6.922;2023-02-01T17:08:29;16.20;;;2.80;;
53253;SDS011;39148;53.332;6.922;2023-02-01T17:10:56;17.00;;;3.05;;
53253;SDS011;39148;53.332;6.922;2023-02-01T17:13:22;19.60;;;3.67;;
53253;SDS011;39148;53.332;6.922;2023-02-01T17:16:11;15.93;;;2.92;;
53253;SDS011;39148;53.332;6.922;2023-02-01T17:18:37;21.90;;;3.17;;
53253;SDS011;39148;53.332;6.922;2023-02-01T17:21:03;18.15;;;2.78;;
53253;SDS011;39148;53.332;6.922;2023-02-01T17:23:31;19.75;;;3.20;;
53253;SDS011;39148;53.332;6.922;2023-02-01T17:25:57;14.88;;;3.40;;
53253;SDS011;39148;53.332;6.922;2023-02-01T17:28:24;16.38;;;3.03;;
53253;SDS011;39148;53.332;6.922;2023-02-01T17:30:50;17.80;;;2.72;;
53253;SDS011;39148;53.332;6.922;2023-02-01T17:33:19;24.35;;;3.88;;
53253;SDS011;39148;53.332;6.922;2023-02-01T17:35:46;15.38;;;3.17;;
53253;SDS011;39148;53.332;6.922;2023-02-01T17:38:12;15.13;;;2.55;;
53253;SDS011;39148;53.332;6.922;2023-02-01T17:40:38;18.00;;;2.58;;
53253;SDS011;39148;53.332;6.922;2023-02-01T17:43:04;15.45;;;2.65;;
53253;SDS011;39148;53.332;6.922;2023-02-01T17:45:34;17.13;;;2.75;;
53253;SDS011;39148;53.332;6.922;2023-02-01T17:48:02;13.93;;;3.08;;
53253;SDS011;39148;53.332;6.922;2023-02-01T17:50:29;14.95;;;3.72;;
53253;SDS011;39148;53.332;6.922;2023-02-01T17:52:56;13.43;;;2.78;;
53253;SDS011;39148;53.332;6.922;2023-02-01T17:55:23;17.05;;;3.20;;
53253;SDS011;39148;53.332;6.922;2023-02-01T17:57:50;14.32;;;2.63;;
53253;SDS011;39148;53.332;6.922;2023-02-01T18:00:17;18.27;;;2.88;;
53253;SDS011;39148;53.332;6.922;2023-02-01T18:02:43;14.75;;;2.40;;
53253;SDS011;39148;53.332;6.922;2023-02-01T18:07:52;21.10;;;3.20;;
53253;SDS011;39148;53.332;6.922;2023-02-01T18:10:18;18.17;;;2.90;;
53253;SDS011;39148;53.332;6.922;2023-02-01T18:12:44;14.18;;;2.58;;
53253;SDS011;39148;53.332;6.922;2023-02-01T18:15:20;17.63;;;3.25;;
53253;SDS011;39148;53.332;6.922;2023-02-01T18:17:47;17.00;;;2.50;;
53253;SDS011;39148;53.332;6.922;2023-02-01T18:20:14;15.63;;;3.55;;
53253;SDS011;39148;53.332;6.922;2023-02-01T18:22:41;16.55;;;2.65;;
53253;SDS011;39148;53.332;6.922;2023-02-01T18:25:12;14.57;;;2.70;;
53253;SDS011;39148;53.332;6.922;2023-02-01T18:27:40;13.73;;;2.83;;
53253;SDS011;39148;53.332;6.922;2023-02-01T18:30:06;16.63;;;2.85;;
53253;SDS011;39148;53.332;6.922;2023-02-01T18:32:32;15.80;;;2.55;;
53253;SDS011;39148;53.332;6.922;2023-02-01T18:34:58;12.32;;;2.58;;
53253;SDS011;39148;53.332;6.922;2023-02-01T18:37:24;14.40;;;2.25;;
53253;SDS011;39148;53.332;6.922;2023-02-01T18:39:50;14.23;;;2.65;;
53253;SDS011;39148;53.332;6.922;2023-02-01T18:42:16;14.73;;;2.70;;
53253;SDS011;39148;53.332;6.922;2023-02-01T18:44:42;14.13;;;2.83;;
53253;SDS011;39148;53.332;6.922;2023-02-01T18:47:08;18.17;;;3.38;;
53253;SDS011;39148;53.332;6.922;2023-02-01T18:49:34;19.55;;;2.80;;
53253;SDS011;39148;53.332;6.922;2023-02-01T18:52:00;15.27;;;2.97;;
53253;SDS011;39148;53.332;6.922;2023-02-01T18:54:26;15.98;;;2.63;;
53253;SDS011;39148;53.332;6.922;2023-02-01T18:56:52;17.08;;;3.00;;
53253;SDS011;39148;53.332;6.922;2023-02-01T18:59:18;15.32;;;2.92;;
53253;SDS011;39148;53.332;6.922;2023-02-01T19:01:44;21.92;;;4.30;;
53253;SDS011;39148;53.332;6.922;2023-02-01T19:04:10;14.50;;;2.40;;
53253;SDS011;39148;53.332;6.922;2023-02-01T19:06:38;16.75;;;3.17;;
53253;SDS011;39148;53.332;6.922;2023-02-01T19:09:03;14.27;;;3.13;;
53253;SDS011;39148;53.332;6.922;2023-02-01T19:11:30;16.48;;;2.53;;
53253;SDS011;39148;53.332;6.922;2023-02-01T19:13:55;14.07;;;2.85;;
53253;SDS011;39148;53.332;6.922;2023-02-01T19:16:21;15.27;;;2.47;;
53253;SDS011;39148;53.332;6.922;2023-02-01T19:18:50;11.93;;;2.80;;
53253;SDS011;39148;53.332;6.922;2023-02-01T19:21:16;15.35;;;2.92;;
53253;SDS011;39148;53.332;6.922;2023-02-01T19:23:43;16.63;;;3.25;;
53253;SDS011;39148;53.332;6.922;2023-02-01T19:26:12;13.00;;;2.38;;
53253;SDS011;39148;53.332;6.922;2023-02-01T19:28:38;17.67;;;3.38;;
53253;SDS011;39148;53.332;6.922;2023-02-01T19:31:05;15.27;;;2.40;;
53253;SDS011;39148;53.332;6.922;2023-02-01T19:33:31;17.77;;;2.97;;
53253;SDS011;39148;53.332;6.922;2023-02-01T19:35:58;14.90;;;2.85;;
53253;SDS011;39148;53.332;6.922;2023-02-01T19:38:25;16.92;;;3.13;;
53253;SDS011;39148;53.332;6.922;2023-02-01T19:40:51;11.70;;;2.30;;
53253;SDS011;39148;53.332;6.922;2023-02-01T19:43:19;15.45;;;2.50;;
53253;SDS011;39148;53.332;6.922;2023-02-01T19:45:44;17.23;;;2.90;;
53253;SDS011;39148;53.332;6.922;2023-02-01T19:48:10;13.63;;;2.90;;
53253;SDS011;39148;53.332;6.922;2023-02-01T19:50:37;19.80;;;3.42;;
53253;SDS011;39148;53.332;6.922;2023-02-01T19:53:03;17.15;;;3.00;;
53253;SDS011;39148;53.332;6.922;2023-02-01T19:55:29;15.00;;;3.05;;
53253;SDS011;39148;53.332;6.922;2023-02-01T19:57:56;17.52;;;3.13;;
53253;SDS011;39148;53.332;6.922;2023-02-01T20:00:22;16.90;;;3.20;;
53253;SDS011;39148;53.332;6.922;2023-02-01T20:02:49;16.27;;;2.88;;
53253;SDS011;39148;53.332;6.922;2023-02-01T20:05:15;18.10;;;2.72;;
53253;SDS011;39148;53.332;6.922;2023-02-01T20:07:43;13.40;;;2.60;;
53253;SDS011;39148;53.332;6.922;2023-02-01T20:10:09;14.45;;;2.70;;
53253;SDS011;39148;53.332;6.922;2023-02-01T20:12:35;19.92;;;3.03;;
53253;SDS011;39148;53.332;6.922;2023-02-01T20:15:01;15.85;;;2.95;;
53253;SDS011;39148;53.332;6.922;2023-02-01T20:17:28;16.08;;;2.58;;
53253;SDS011;39148;53.332;6.922;2023-02-01T20:19:54;20.58;;;3.72;;
53253;SDS011;39148;53.332;6.922;2023-02-01T20:22:20;16.75;;;2.85;;
53253;SDS011;39148;53.332;6.922;2023-02-01T20:24:46;18.20;;;2.80;;
53253;SDS011;39148;53.332;6.922;2023-02-01T20:27:12;16.08;;;3.20;;
53253;SDS011;39148;53.332;6.922;2023-02-01T20:29:38;13.15;;;2.72;;
53253;SDS011;39148;53.332;6.922;2023-02-01T20:32:08;16.23;;;2.70;;
53253;SDS011;39148;53.332;6.922;2023-02-01T20:34:34;16.50;;;2.72;;
53253;SDS011;39148;53.332;6.922;2023-02-01T20:37:00;12.82;;;2.78;;
53253;SDS011;39148;53.332;6.922;2023-02-01T20:39:26;14.30;;;2.55;;
53253;SDS011;39148;53.332;6.922;2023-02-01T20:41:52;17.25;;;3.25;;
53253;SDS011;39148;53.332;6.922;2023-02-01T20:44:18;15.65;;;2.95;;
53253;SDS011;39148;53.332;6.922;2023-02-01T20:46:44;15.70;;;2.85;;
53253;SDS011;39148;53.332;6.922;2023-02-01T20:49:11;16.58;;;2.63;;
53253;SDS011;39148;53.332;6.922;2023-02-01T20:51:37;16.50;;;3.05;;
53253;SDS011;39148;53.332;6.922;2023-02-01T20:54:03;16.08;;;3.03;;
53253;SDS011;39148;53.332;6.922;2023-02-01T20:56:28;13.98;;;2.83;;
53253;SDS011;39148;53.332;6.922;2023-02-01T20:58:54;18.10;;;2.70;;
53253;SDS011;39148;53.332;6.922;2023-02-01T21:01:27;18.50;;;3.03;;
53253;SDS011;39148;53.332;6.922;2023-02-01T21:03:53;15.98;;;2.83;;
53253;SDS011;39148;53.332;6.922;2023-02-01T21:06:19;16.58;;;2.78;;
53253;SDS011;39148;53.332;6.922;2023-02-01T21:08:45;15.10;;;3.10;;
53253;SDS011;39148;53.332;6.922;2023-02-01T21:11:11;17.88;;;2.75;;
53253;SDS011;39148;53.332;6.922;2023-02-01T21:13:39;18.65;;;3.22;;
53253;SDS011;39148;53.332;6.922;2023-02-01T21:16:09;19.33;;;2.83;;
53253;SDS011;39148;53.332;6.922;2023-02-01T21:18:35;12.82;;;2.40;;
53253;SDS011;39148;53.332;6.922;2023-02-01T21:21:05;16.98;;;2.58;;
53253;SDS011;39148;53.332;6.922;2023-02-01T21:23:32;16.25;;;2.75;;
53253;SDS011;39148;53.332;6.922;2023-02-01T21:26:01;17.67;;;2.55;;
53253;SDS011;39148;53.332;6.922;2023-02-01T21:28:27;16.35;;;2.70;;
53253;SDS011;39148;53.332;6.922;2023-02-01T21:30:53;17.13;;;3.20;;
53253;SDS011;39148;53.332;6.922;2023-02-01T21:33:19;16.95;;;2.88;;
53253;SDS011;39148;53.332;6.922;2023-02-01T21:35:48;12.27;;;2.47;;
53253;SDS011;39148;53.332;6.922;2023-02-01T21:38:14;18.17;;;3.08;;
53253;SDS011;39148;53.332;6.922;2023-02-01T21:40:41;17.30;;;3.00;;
53253;SDS011;39148;53.332;6.922;2023-02-01T21:43:06;14.50;;;2.70;;
53253;SDS011;39148;53.332;6.922;2023-02-01T21:45:32;14.15;;;2.58;;
53253;SDS011;39148;53.332;6.922;2023-02-01T21:47:59;16.95;;;3.20;;
53253;SDS011;39148;53.332;6.922;2023-02-01T21:50:26;17.48;;;2.92;;
53253;SDS011;39148;53.332;6.922;2023-02-01T21:52:53;18.52;;;3.70;;
53253;SDS011;39148;53.332;6.922;2023-02-01T21:55:18;21.50;;;3.85;;
53253;SDS011;39148;53.332;6.922;2023-02-01T21:57:44;18.35;;;3.70;;
53253;SDS011;39148;53.332;6.922;2023-02-01T22:00:10;15.60;;;2.90;;
53253;SDS011;39148;53.332;6.922;2023-02-01T22:02:36;13.00;;;2.92;;
53253;SDS011;39148;53.332;6.922;2023-02-01T22:05:02;17.98;;;2.80;;
53253;SDS011;39148;53.332;6.922;2023-02-01T22:07:32;16.40;;;3.10;;
53253;SDS011;39148;53.332;6.922;2023-02-01T22:09:58;15.82;;;3.25;;
53253;SDS011;39148;53.332;6.922;2023-02-01T22:12:25;20.77;;;2.92;;
53253;SDS011;39148;53.332;6.922;2023-02-01T22:14:51;18.15;;;3.00;;
53253;SDS011;39148;53.332;6.922;2023-02-01T22:17:18;16.45;;;2.92;;
53253;SDS011;39148;53.332;6.922;2023-02-01T22:19:44;18.45;;;3.15;;
53253;SDS011;39148;53.332;6.922;2023-02-01T22:22:10;19.75;;;3.67;;
53253;SDS011;39148;53.332;6.922;2023-02-01T22:24:36;15.73;;;3.85;;
53253;SDS011;39148;53.332;6.922;2023-02-01T22:27:02;15.75;;;3.08;;
53253;SDS011;39148;53.332;6.922;2023-02-01T22:29:28;25.00;;;3.83;;
53253;SDS011;39148;53.332;6.922;2023-02-01T22:31:54;18.15;;;2.95;;
53253;SDS011;39148;53.332;6.922;2023-02-01T22:34:20;15.90;;;3.05;;
53253;SDS011;39148;53.332;6.922;2023-02-01T22:36:46;21.17;;;3.33;;
53253;SDS011;39148;53.332;6.922;2023-02-01T22:39:15;16.30;;;2.97;;
53253;SDS011;39148;53.332;6.922;2023-02-01T22:41:41;14.88;;;3.30;;
53253;SDS011;39148;53.332;6.922;2023-02-01T22:44:06;16.42;;;2.55;;
53253;SDS011;39148;53.332;6.922;2023-02-01T22:46:33;13.32;;;2.72;;
53253;SDS011;39148;53.332;6.922;2023-02-01T22:48:59;14.50;;;3.13;;
53253;SDS011;39148;53.332;6.922;2023-02-01T22:51:26;18.85;;;3.70;;
53253;SDS011;39148;53.332;6.922;2023-02-01T22:53:53;18.13;;;2.90;;
53253;SDS011;39148;53.332;6.922;2023-02-01T22:56:23;14.18;;;2.55;;
53253;SDS011;39148;53.332;6.922;2023-02-01T22:58:53;15.05;;;2.85;;
53253;SDS011;39148;53.332;6.922;2023-02-01T23:01:20;15.15;;;3.55;;
53253;SDS011;39148;53.332;6.922;2023-02-01T23:03:46;14.43;;;3.05;;
53253;SDS011;39148;53.332;6.922;2023-02-01T23:06:12;15.55;;;2.58;;
53253;SDS011;39148;53.332;6.922;2023-02-01T23:08:40;14.88;;;2.88;;
53253;SDS011;39148;53.332;6.922;2023-02-01T23:11:07;14.77;;;3.17;;
53253;SDS011;39148;53.332;6.922;2023-02-01T23:13:34;13.82;;;2.45;;
53253;SDS011;39148;53.332;6.922;2023-02-01T23:16:04;14.95;;;2.53;;
53253;SDS011;39148;53.332;6.922;2023-02-01T23:18:31;16.77;;;2.92;;
53253;SDS011;39148;53.332;6.922;2023-02-01T23:21:00;15.93;;;3.00;;
53253;SDS011;39148;53.332;6.922;2023-02-01T23:23:26;17.90;;;3.38;;
53253;SDS011;39148;53.332;6.922;2023-02-01T23:25:52;15.98;;;2.67;;
53253;SDS011;39148;53.332;6.922;2023-02-01T23:28:18;19.20;;;2.75;;
53253;SDS011;39148;53.332;6.922;2023-02-01T23:30:44;12.55;;;2.60;;
53253;SDS011;39148;53.332;6.922;2023-02-01T23:33:10;15.43;;;2.60;;
53253;SDS011;39148;53.332;6.922;2023-02-01T23:35:36;17.13;;;3.03;;
53253;SDS011;39148;53.332;6.922;2023-02-01T23:38:02;15.93;;;3.25;;
53253;SDS011;39148;53.332;6.922;2023-02-01T23:40:28;17.45;;;2.83;;
53253;SDS011;39148;53.332;6.922;2023-02-01T23:42:54;18.73;;;2.83;;
53253;SDS011;39148;53.332;6.922;2023-02-01T23:45:39;15.27;;;3.00;;
53253;SDS011;39148;53.332;6.922;2023-02-01T23:48:05;17.15;;;2.80;;
53253;SDS011;39148;53.332;6.922;2023-02-01T23:50:31;16.73;;;3.10;;
53253;SDS011;39148;53.332;6.922;2023-02-01T23:52:57;14.20;;;2.58;;
53253;SDS011;39148;53.332;6.922;2023-02-01T23:55:22;13.25;;;2.88;;
53253;SDS011;39148;53.332;6.922;2023-02-01T23:57:48;15.93;;;2.78;;
